Terminal Aerodrome Forecast
Issued by NWS Pueblo, CO

Home | Current Version | Previous Version | Text Only | Print | Product List | Glossary On
Versions: 1 2 3 4 5 6 7 8 9 10 11 12 13 14 15 16 17 18 19 20 21 22 23
000
FTUS45 KPUB 210544 AAB
TAFPUB
TAF AMD
KPUB 210544Z 2106/2206 30006KT P6SM SCT170 BKN250
     FM211300 36016KT P6SM BKN170
     FM211500 01015G25KT P6SM BKN060
     FM211900 06012KT P6SM SCT060 SCT200
     FM220100 VRB06KT P6SM SCT090=

USA.gov is the U.S. government's official web portal to all federal, state and local government web resources and services.